CDT,Max TemperatureF,Mean TemperatureF,Min TemperatureF,Max Dew PointF,MeanDew PointF,Min DewpointF,Max Humidity, Mean Humidity, Min Humidity, Max Sea Level PressureIn, Mean Sea Level PressureIn, Min Sea Level PressureIn, Max VisibilityMiles, Mean VisibilityMiles, Min VisibilityMiles, Max Wind SpeedMPH, Mean Wind SpeedMPH, Max Gust SpeedMPH,PrecipitationIn, CloudCover, Events, WindDirDegrees
2013-8-1,82,68,53,61,53,48,94,63,30,30.07,29.99,29.90,10,10,10,9,2,,0.00,1,,271
2013-8-2,78,66,53,57,53,45,94,66,32,30.09,29.98,29.90,10,10,5,10,2,,0.00,0,,352
2013-8-3,78,64,50,55,49,43,94,62,28,30.22,30.17,30.09,10,10,10,13,3,20,0.00,1,,345
2013-8-4,78,66,53,61,52,48,88,68,39,30.25,30.14,29.95,10,10,4,12,4,,0.21,3,Rain-Thunderstorm,124
2013-8-5,80,71,62,64,62,57,94,77,47,30.01,29.88,29.83,10,10,2,14,5,17,0.74,4,Rain-Thunderstorm,304
2013-8-6,86,73,60,64,61,57,94,73,45,29.87,29.78,29.69,10,10,7,23,5,40,0.00,0,,249
2013-8-7,75,68,60,61,53,46,94,58,38,30.02,29.99,29.87,10,10,7,13,6,17,0.00,1,,25
2013-8-8,77,68,59,64,58,54,88,75,50,30.06,30.02,29.99,10,10,10,9,2,,0.03,4,Rain,193
2013-8-9,75,64,53,55,51,46,94,67,38,30.16,30.09,30.03,10,10,7,16,4,25,0.00,1,,313
2013-8-10,77,64,50,61,54,48,94,70,41,30.20,30.15,30.06,10,10,2,7,2,,0.00,1,,119
2013-8-11,80,68,57,63,59,55,94,73,42,30.07,30.05,30.02,10,8,0,9,3,,0.00,3,Fog,18
2013-8-12,80,66,51,59,53,46,94,65,30,30.10,30.08,30.05,10,10,7,12,3,16,0.00,0,,341
2013-8-13,77,62,48,55,48,41,93,61,29,30.22,30.17,30.11,10,10,4,13,4,16,0.00,0,,19
2013-8-14,78,64,50,57,51,46,94,66,32,30.19,30.15,30.09,10,10,0,8,1,,0.00,1,Fog,167
2013-8-15,80,66,53,59,55,48,94,69,32,30.14,30.10,30.08,10,8,0,7,1,,0.00,1,Fog,181
2013-8-16,78,66,53,59,55,50,94,70,42,30.18,30.15,30.13,10,8,0,12,3,17,0.00,2,Fog,168
2013-8-17,82,70,57,63,59,55,94,68,48,30.15,30.10,30.05,10,10,5,15,7,23,0.00,2,,170
2013-8-18,84,72,60,63,59,55,82,63,45,30.07,30.01,29.94,10,10,7,18,10,26,0.00,1,,178
2013-8-19,89,78,68,72,66,61,89,69,51,29.98,29.90,29.84,10,10,7,10,6,16,0.00,1,,169
2013-8-20,93,80,66,75,70,64,94,74,49,29.86,29.84,29.80,10,8,0,10,5,,0.00,0,Fog,159
2013-8-21,91,80,68,72,66,57,94,70,31,30.03,29.90,29.79,10,8,0,14,6,17,0.00,1,Fog,11
2013-8-22,84,73,62,61,52,43,83,54,23,30.17,30.11,30.04,10,10,5,10,6,,0.00,0,,45
2013-8-23,87,71,55,70,61,52,94,69,49,30.13,30.04,29.95,10,10,10,15,5,22,0.00,1,,132
2013-8-24,95,84,73,73,70,64,88,68,43,29.96,29.89,29.82,10,9,7,21,11,30,0.00,0,Thunderstorm,166
2013-8-25,96,87,78,75,71,70,79,61,41,29.94,29.91,29.88,10,10,7,15,9,21,0.00,0,,192
2013-8-26,96,84,73,75,72,70,89,67,41,29.94,29.88,29.79,10,10,5,16,5,23,0.00,0,Thunderstorm,173
2013-8-27,93,82,71,75,72,68,94,70,44,29.92,29.84,29.77,10,9,2,10,4,,0.00,1,,53
2013-8-28,89,78,68,73,70,64,94,77,52,30.02,29.96,29.92,10,9,3,15,4,17,0.00,0,Rain-Thunderstorm,110
2013-8-29,96,84,73,73,70,66,94,69,37,29.96,29.89,29.82,10,9,2,14,6,20,0.00,0,,164
2013-8-30,87,76,66,70,65,61,94,70,40,29.97,29.92,29.88,10,9,4,9,5,,0.00,1,,23
2013-8-31,91,76,62,70,64,59,94,76,38,29.91,29.82,29.70,10,10,3,15,4,17,0.17,1,Rain-Thunderstorm,186